Time;durP1;ratioP1;P1;durP2;ratioP2;P2;SDS_P1;SDS_P2;PMS_P1;PMS_P2;Temp;Humidity;BMP_temperature;BMP_pressure;BME280_temperature;BME280_humidity;BME280_pressure;Samples;Min_cycle;Max_cycle;Signal;HPM_P1;HPM_P2
2021/11/25 00:00:11;;;;;;;;;;;;;;;;;;2043276;29;1360;-89
2021/11/25 00:01:16;;;;;;;;;;;;;;;;;;2051563;28;856;-89
2021/11/25 00:02:18;;;;;;;;;;;;;;;;;;2050968;29;1923;-89
2021/11/25 00:03:20;;;;;;;;;;;;;;;;;;2059118;28;1441;-89
2021/11/25 00:04:22;;;;;;;;;;;;;;;;;;2058597;28;2047;-85
2021/11/25 00:05:23;;;;;;;;;;;;;;;;;;2050789;29;795;-90
2021/11/25 00:06:25;;;;;;;;;;;;;;;;;;2042975;29;1265;-91
2021/11/25 00:07:26;;;;;;;;;;;;;;;;;;2035088;29;1371;-94
2021/11/25 00:08:29;;;;;;;;;;;;;;;;;;2035435;29;1418;-91
2021/11/25 00:09:30;;;;;;;;;;;;;;;;;;2035350;29;1285;-91
2021/11/25 00:10:32;;;;;;;;;;;;;;;;;;2034873;29;1339;-91
2021/11/25 00:22:07;;;;;;;;;;;;;;;;;;2051659;29;576;-90
2021/11/25 00:23:09;;;;;;;;;;;;;;;;;;2051391;29;1451;-89
2021/11/25 00:24:11;;;;;;;;;;;;;;;;;;2050850;29;1412;-90
2021/11/25 00:25:12;;;;;;;;;;;;;;;;;;2042874;29;1306;-89
2021/11/25 00:26:14;;;;;;;;;;;;;;;;;;2042758;29;1039;-91
2021/11/25 00:27:15;;;;;;;;;;;;;;;;;;2042914;29;1252;-91
2021/11/25 00:32:59;;;;;;;;;;;;;;;;;;2027475;29;604;-91
2021/11/25 00:37:59;;;;;;;;;;;;;;;;;;2027342;29;644;-91
2021/11/25 00:39:02;;;;;;;;;;;;;;;;;;2019186;29;1420;-90
2021/11/25 00:40:05;;;;;;;;;;;;;;;;;;2004301;29;1265;-90
2021/11/25 00:41:05;;;;;;;;;;;;;;;;;;2007177;29;1384;-90
2021/11/25 00:42:07;;;;;;;;;;;;;;;;;;2043118;29;1978;-90
2021/11/25 00:43:08;;;;;;;;;;;;;;;;;;2034983;29;1233;-90
2021/11/25 00:44:10;;;;;;;;;;;;;;;;;;2035180;29;1287;-90
2021/11/25 00:45:12;;;;;;;;;;;;;;;;;;2050834;28;1442;-90
2021/11/25 00:46:14;;;;;;;;;;;;;;;;;;2050362;29;1390;-89
2021/11/25 00:47:14;;;;;;;;;;;;;;;;;;2051173;28;1309;-89
2021/11/25 00:48:17;;;;;;;;;;;;;;;;;;2043015;29;1361;-90
2021/11/25 00:49:19;;;;;;;;;;;;;;;;;;2027142;29;1388;-90
2021/11/25 00:50:20;;;;;;;;;;;;;;;;;;2035264;29;1486;-89
2021/11/25 00:51:22;;;;;;;;;;;;;;;;;;2042990;29;1182;-90
2021/11/25 00:52:24;;;;;;;;;;;;;;;;;;2058782;28;1386;-90
2021/11/25 00:53:26;;;;;;;;;;;;;;;;;;2042699;29;1440;-90
2021/11/25 00:54:29;;;;;;;;;;;;;;;;;;2043231;28;1232;-89
2021/11/25 00:55:31;;;;;;;;;;;;;;;;;;2050547;29;1470;-90
2021/11/25 00:56:31;;;;;;;;;;;;;;;;;;2042886;29;1387;-90
2021/11/25 00:57:33;;;;;;;;;;;;;;;;;;2042329;29;1261;-90
2021/11/25 00:58:35;;;;;;;;;;;;;;;;;;2034820;29;1270;-89
2021/11/25 00:59:36;;;;;;;;;;;;;;;;;;2050624;28;1405;-89
2021/11/25 01:00:39;;;;;;;;;;;;;;;;;;2035085;29;1617;-89
2021/11/25 01:01:39;;;;;;;;;;;;;;;;;;2019876;29;1485;-90
2021/11/25 01:02:41;;;;;;;;;;;;;;;;;;2026996;29;1910;-90
2021/11/25 01:03:44;;;;;;;;;;;;;;;;;;2050701;28;1370;-89
2021/11/25 01:04:45;;;;;;;;;;;;;;;;;;2042361;29;1195;-90
2021/11/25 01:05:47;;;;;;;;;;;;;;;;;;2019500;29;1322;-89
2021/11/25 01:06:48;;;;;;;;;;;;;;;;;;2035030;29;1285;-89
2021/11/25 01:07:50;;;;;;;;;;;;;;;;;;2051046;29;825;-90
2021/11/25 01:08:51;;;;;;;;;;;;;;;;;;2050296;28;1356;-89
2021/11/25 01:09:55;;;;;;;;;;;;;;;;;;2035008;29;1257;-90
2021/11/25 01:10:57;;;;;;;;;;;;;;;;;;2035261;29;1454;-90
2021/11/25 01:12:01;;;;;;;;;;;;;;;;;;2026758;29;1241;-89
2021/11/25 01:13:03;;;;;;;;;;;;;;;;;;2044095;28;1455;-90
2021/11/25 01:14:04;;;;;;;;;;;;;;;;;;2050326;29;1217;-90
2021/11/25 01:15:06;;;;;;;;;;;;;;;;;;2042632;29;1198;-89
2021/11/25 01:16:08;;;;;;;;;;;;;;;;;;2042334;29;1305;-89
2021/11/25 01:17:09;;;;;;;;;;;;;;;;;;2042675;29;1054;-90
2021/11/25 01:18:12;;;;;;;;;;;;;;;;;;2042610;29;1204;-89
2021/11/25 01:19:12;;;;;;;;;;;;;;;;;;2038387;29;1983;-89
2021/11/25 01:20:16;;;;;;;;;;;;;;;;;;2042851;29;902;-89
2021/11/25 01:21:17;;;;;;;;;;;;;;;;;;2060020;28;1345;-90
2021/11/25 01:22:19;;;;;;;;;;;;;;;;;;2058119;28;1907;-89
2021/11/25 01:23:23;;;;;;;;;;;;;;;;;;2050060;29;1284;-89
2021/11/25 01:24:24;;;;;;;;;;;;;;;;;;2042725;29;1316;-88
2021/11/25 01:25:27;;;;;;;;;;;;;;;;;;2034402;29;1331;-89
2021/11/25 01:26:29;;;;;;;;;;;;;;;;;;2033996;29;2029;-89
2021/11/25 01:27:30;;;;;;;;;;;;;;;;;;2026654;29;1305;-91
2021/11/25 01:28:32;;;;;;;;;;;;;;;;;;2027089;29;1312;-91
2021/11/25 01:29:33;;;;;;;;;;;;;;;;;;2042975;29;981;-90
2021/11/25 01:30:35;;;;;;;;;;;;;;;;;;2034680;29;1424;-91
2021/11/25 01:31:36;;;;;;;;;;;;;;;;;;2034392;29;1345;-90
2021/11/25 01:32:42;;;;;;;;;;;;;;;;;;2034805;29;1430;-90
2021/11/25 01:33:43;;;;;;;;;;;;;;;;;;2042866;29;1261;-90
2021/11/25 01:34:45;;;;;;;;;;;;;;;;;;2042671;29;1394;-90
2021/11/25 01:35:48;;;;;;;;;;;;;;;;;;2042247;29;1375;-90
2021/11/25 01:36:51;;;;;;;;;;;;;;;;;;2042702;29;1357;-91
2021/11/25 01:37:52;;;;;;;;;;;;;;;;;;2042492;29;1481;-90
2021/11/25 01:57:15;;;;;;;;;;;;;;;;;;2051109;29;640;-89
2021/11/25 01:58:18;;;;;;;;;;;;;;;;;;2058408;28;1329;-89
2021/11/25 01:59:20;;;;;;;;;;;;;;;;;;2042174;29;1478;-90
2021/11/25 02:00:23;;;;;;;;;;;;;;;;;;2034778;29;1314;-90
2021/11/25 02:01:32;;;;;;;;;;;;;;;;;;2058513;28;1295;-90
2021/11/25 02:02:33;;;;;;;;;;;;;;;;;;2057262;28;1918;-90
2021/11/25 02:03:35;;;;;;;;;;;;;;;;;;2041938;29;1347;-90
2021/11/25 02:04:36;;;;;;;;;;;;;;;;;;2034594;29;1325;-90
2021/11/25 02:05:38;;;;;;;;;;;;;;;;;;2050508;28;785;-90
2021/11/25 02:06:40;;;;;;;;;;;;;;;;;;2051193;28;1441;-89
2021/11/25 02:07:42;;;;;;;;;;;;;;;;;;2051568;29;1232;-90
2021/11/25 02:08:43;;;;;;;;;;;;;;;;;;2043596;29;1533;-90
2021/11/25 02:09:45;;;;;;;;;;;;;;;;;;2043340;29;1373;-90
2021/11/25 02:10:48;;;;;;;;;;;;;;;;;;2044088;29;1516;-89
2021/11/25 02:11:50;;;;;;;;;;;;;;;;;;2043646;29;1215;-90
2021/11/25 02:12:51;;;;;;;;;;;;;;;;;;2052002;28;1018;-90
2021/11/25 02:13:54;;;;;;;;;;;;;;;;;;2043956;29;1218;-90
2021/11/25 02:14:55;;;;;;;;;;;;;;;;;;2044126;28;1280;-90
2021/11/25 02:17:52;;;;;;;;;;;;;;;;;;2050061;29;1247;-90
2021/11/25 02:18:55;;;;;;;;;;;;;;;;;;2044260;29;1220;-90
2021/11/25 02:19:57;;;;;;;;;;;;;;;;;;2044452;29;1265;-90
2021/11/25 02:21:01;;;;;;;;;;;;;;;;;;2044163;29;1318;-90
2021/11/25 02:22:03;;;;;;;;;;;;;;;;;;2036470;29;1293;-91
2021/11/25 02:23:06;;;;;;;;;;;;;;;;;;2044641;28;1902;-90
2021/11/25 02:24:08;;;;;;;;;;;;;;;;;;2043959;29;1417;-90
2021/11/25 02:25:10;;;;;;;;;;;;;;;;;;2051592;28;1238;-90
2021/11/25 02:26:12;;;;;;;;;;;;;;;;;;2059756;28;1393;-91
2021/11/25 02:27:13;;;;;;;;;;;;;;;;;;2036324;29;1310;-90
2021/11/25 02:28:15;;;;;;;;;;;;;;;;;;2035960;29;1455;-91
2021/11/25 02:29:16;;;;;;;;;;;;;;;;;;2051666;29;1191;-90
2021/11/25 02:30:18;;;;;;;;;;;;;;;;;;2051819;29;1253;-89
2021/11/25 02:31:19;;;;;;;;;;;;;;;;;;2051449;28;1218;-90
2021/11/25 02:32:31;;;;;;;;;;;;;;;;;;2043858;29;1469;-90
2021/11/25 02:33:32;;;;;;;;;;;;;;;;;;2045414;29;1342;-90
2021/11/25 02:34:34;;;;;;;;;;;;;;;;;;2051628;28;1117;-90
2021/11/25 02:35:39;;;;;;;;;;;;;;;;;;2067419;28;1396;-90
2021/11/25 02:36:43;;;;;;;;;;;;;;;;;;2059381;28;1492;-90
2021/11/25 02:37:43;;;;;;;;;;;;;;;;;;2052013;28;1415;-89
2021/11/25 02:38:45;;;;;;;;;;;;;;;;;;2059741;28;1246;-90
2021/11/25 02:39:47;;;;;;;;;;;;;;;;;;2051582;28;1190;-90
2021/11/25 02:40:50;;;;;;;;;;;;;;;;;;2043798;29;1341;-89
2021/11/25 02:41:51;;;;;;;;;;;;;;;;;;2051638;29;1319;-90
2021/11/25 02:42:54;;;;;;;;;;;;;;;;;;2043530;29;1972;-90
2021/11/25 02:43:57;;;;;;;;;;;;;;;;;;2043870;29;1277;-90
2021/11/25 02:44:58;;;;;;;;;;;;;;;;;;2043964;28;1318;-90
2021/11/25 02:46:01;;;;;;;;;;;;;;;;;;2051345;29;1204;-90
2021/11/25 02:47:02;;;;;;;;;;;;;;;;;;2044184;28;1202;-90
2021/11/25 02:48:05;;;;;;;;;;;;;;;;;;2051844;29;1338;-90
2021/11/25 02:49:07;;;;;;;;;;;;;;;;;;2036035;29;1287;-90
2021/11/25 02:50:08;;;;;;;;;;;;;;;;;;2035920;29;1363;-90
2021/11/25 02:51:10;;;;;;;;;;;;;;;;;;2035830;29;1279;-90
2021/11/25 02:52:14;;;;;;;;;;;;;;;;;;2036450;29;1550;-91
2021/11/25 02:53:18;;;;;;;;;;;;;;;;;;2044314;29;1214;-90
2021/11/25 02:54:20;;;;;;;;;;;;;;;;;;2052034;28;1475;-90
2021/11/25 02:55:20;;;;;;;;;;;;;;;;;;2051967;29;1287;-90
2021/11/25 02:56:24;;;;;;;;;;;;;;;;;;2043443;29;1362;-89
2021/11/25 02:57:24;;;;;;;;;;;;;;;;;;2043843;29;1203;-90
2021/11/25 02:58:27;;;;;;;;;;;;;;;;;;2043255;29;1442;-90
2021/11/25 02:59:28;;;;;;;;;;;;;;;;;;2043940;29;1205;-90
2021/11/25 03:00:32;;;;;;;;;;;;;;;;;;2035540;29;1257;-89
2021/11/25 03:01:36;;;;;;;;;;;;;;;;;;2044686;28;1127;-89
2021/11/25 03:16:18;;;;;;;;;;;;;;;;;;2054963;28;588;-89
2021/11/25 03:17:19;;;;;;;;;;;;;;;;;;2051361;28;1190;-89
2021/11/25 03:18:21;;;;;;;;;;;;;;;;;;2059073;28;1427;-90
2021/11/25 03:19:22;;;;;;;;;;;;;;;;;;2058076;28;1271;-90
2021/11/25 03:20:27;;;;;;;;;;;;;;;;;;2059978;28;1443;-90
2021/11/25 03:21:28;;;;;;;;;;;;;;;;;;2055530;28;1362;-90
2021/11/25 03:22:32;;;;;;;;;;;;;;;;;;2044209;29;1283;-90
2021/11/25 03:23:34;;;;;;;;;;;;;;;;;;2035185;29;1972;-90
2021/11/25 03:24:36;;;;;;;;;;;;;;;;;;2043941;28;1176;-90
2021/11/25 03:25:37;;;;;;;;;;;;;;;;;;2050574;29;1295;-90
2021/11/25 03:26:39;;;;;;;;;;;;;;;;;;2035335;29;1406;-89
2021/11/25 03:27:40;;;;;;;;;;;;;;;;;;2035285;29;1351;-89
2021/11/25 03:28:45;;;;;;;;;;;;;;;;;;2043309;29;1326;-89
2021/11/25 03:29:46;;;;;;;;;;;;;;;;;;2041668;29;1216;-89
2021/11/25 03:30:56;;;;;;;;;;;;;;;;;;2043304;29;1350;-89
2021/11/25 03:32:03;;;;;;;;;;;;;;;;;;2043651;29;853;-89
2021/11/25 03:37:24;;;;;;;;;;;;;;;;;;2035064;29;1024;-89
2021/11/25 03:38:26;;;;;;;;;;;;;;;;;;2034933;29;1281;-89
2021/11/25 03:39:28;;;;;;;;;;;;;;;;;;2035091;29;1305;-89
2021/11/25 03:40:29;;;;;;;;;;;;;;;;;;2035165;29;790;-88
2021/11/25 03:41:32;;;;;;;;;;;;;;;;;;2030725;29;1860;-93
2021/11/25 03:42:32;;;;;;;;;;;;;;;;;;2027282;29;1366;-91
2021/11/25 03:43:36;;;;;;;;;;;;;;;;;;2026851;29;1970;-90
2021/11/25 03:44:37;;;;;;;;;;;;;;;;;;2035072;29;1287;-91
2021/11/25 03:45:40;;;;;;;;;;;;;;;;;;2034960;29;1344;-91
2021/11/25 03:46:40;;;;;;;;;;;;;;;;;;2034805;29;1230;-90
2021/11/25 03:47:45;;;;;;;;;;;;;;;;;;2034735;29;1327;-90
2021/11/25 03:48:47;;;;;;;;;;;;;;;;;;2042623;29;2101;-92
2021/11/25 03:49:48;;;;;;;;;;;;;;;;;;2050481;29;1318;-90
2021/11/25 03:50:50;;;;;;;;;;;;;;;;;;2035072;29;1408;-90
2021/11/25 03:51:51;;;;;;;;;;;;;;;;;;2028255;29;2036;-91
2021/11/25 03:52:52;;;;;;;;;;;;;;;;;;2034754;29;1316;-91
2021/11/25 03:53:55;;;;;;;;;;;;;;;;;;2026564;29;2079;-91
2021/11/25 03:54:57;;;;;;;;;;;;;;;;;;2035274;29;1371;-90
2021/11/25 03:56:01;;;;;;;;;;;;;;;;;;2034760;29;1439;-91
2021/11/25 03:57:05;;;;;;;;;;;;;;;;;;2034637;29;1356;-91
2021/11/25 03:58:10;;;;;;;;;;;;;;;;;;2042731;29;1538;-91
2021/11/25 03:59:10;;;;;;;;;;;;;;;;;;2048073;29;2106;-91
2021/11/25 04:00:19;;;;;;;;;;;;;;;;;;2043244;29;1354;-90
2021/11/25 04:01:23;;;;;;;;;;;;;;;;;;2060297;28;1253;-91
2021/11/25 04:02:27;;;;;;;;;;;;;;;;;;2058830;28;1516;-91
2021/11/25 04:03:32;;;;;;;;;;;;;;;;;;2043057;29;1928;-91
2021/11/25 04:04:34;;;;;;;;;;;;;;;;;;2043325;29;1317;-91
2021/11/25 04:05:37;;;;;;;;;;;;;;;;;;2058702;28;1334;-91
2021/11/25 04:06:41;;;;;;;;;;;;;;;;;;2050805;28;1312;-89
2021/11/25 04:07:43;;;;;;;;;;;;;;;;;;2027960;29;1443;-89
2021/11/25 04:08:45;;;;;;;;;;;;;;;;;;2019884;29;1127;-89
2021/11/25 04:09:48;;;;;;;;;;;;;;;;;;2019941;29;1222;-89
2021/11/25 04:10:50;;;;;;;;;;;;;;;;;;2020788;29;1490;-89
2021/11/25 04:11:51;;;;;;;;;;;;;;;;;;2042692;29;1202;-89
2021/11/25 04:12:53;;;;;;;;;;;;;;;;;;2050283;29;1399;-88
2021/11/25 04:13:54;;;;;;;;;;;;;;;;;;2034717;29;1281;-88
2021/11/25 04:14:56;;;;;;;;;;;;;;;;;;2042733;29;1435;-88
2021/11/25 04:15:57;;;;;;;;;;;;;;;;;;2042708;29;1357;-88
2021/11/25 04:16:58;;;;;;;;;;;;;;;;;;2034572;29;2124;-89
2021/11/25 04:18:00;;;;;;;;;;;;;;;;;;2043063;29;1276;-89
2021/11/25 04:19:02;;;;;;;;;;;;;;;;;;2050653;28;2120;-92
2021/11/25 04:20:05;;;;;;;;;;;;;;;;;;2050554;29;1091;-90
2021/11/25 04:21:05;;;;;;;;;;;;;;;;;;2043011;29;1285;-89
2021/11/25 04:22:07;;;;;;;;;;;;;;;;;;2034775;29;1373;-90
2021/11/25 04:23:09;;;;;;;;;;;;;;;;;;2051044;28;1326;-89
2021/11/25 04:24:12;;;;;;;;;;;;;;;;;;2058867;28;1902;-89
2021/11/25 04:25:13;;;;;;;;;;;;;;;;;;2042917;29;1352;-89
2021/11/25 04:26:15;;;;;;;;;;;;;;;;;;2036888;29;1453;-89
2021/11/25 04:27:15;;;;;;;;;;;;;;;;;;2042847;29;1319;-89
2021/11/25 04:28:17;;;;;;;;;;;;;;;;;;2051067;28;837;-88
2021/11/25 04:29:25;;;;;;;;;;;;;;;;;;2059138;28;908;-88
2021/11/25 04:36:06;;;;;;;;;;;;;;;;;;2061933;28;1204;-89
2021/11/25 04:37:08;;;;;;;;;;;;;;;;;;2058992;28;1430;-88
2021/11/25 04:38:09;;;;;;;;;;;;;;;;;;2043193;29;1240;-88
2021/11/25 04:39:13;;;;;;;;;;;;;;;;;;2043306;29;1445;-88
2021/11/25 04:40:13;;;;;;;;;;;;;;;;;;2035265;29;1333;-88
2021/11/25 04:41:15;;;;;;;;;;;;;;;;;;2035507;29;1295;-88
2021/11/25 04:42:17;;;;;;;;;;;;;;;;;;2042856;29;1210;-88
2021/11/25 04:43:18;;;;;;;;;;;;;;;;;;2050649;28;1542;-88
2021/11/25 04:44:20;;;;;;;;;;;;;;;;;;2050460;28;1989;-88
2021/11/25 04:45:21;;;;;;;;;;;;;;;;;;2043052;29;1410;-89
2021/11/25 04:46:23;;;;;;;;;;;;;;;;;;2050691;28;1249;-88
2021/11/25 04:47:24;;;;;;;;;;;;;;;;;;2050822;28;1212;-88
2021/11/25 04:48:26;;;;;;;;;;;;;;;;;;2034667;29;1370;-89
2021/11/25 04:49:27;;;;;;;;;;;;;;;;;;2051027;28;1410;-89
2021/11/25 04:50:31;;;;;;;;;;;;;;;;;;2058417;28;1273;-89
2021/11/25 04:51:32;;;;;;;;;;;;;;;;;;2042820;29;1310;-89
2021/11/25 04:52:34;;;;;;;;;;;;;;;;;;2042821;29;1269;-90
2021/11/25 04:53:36;;;;;;;;;;;;;;;;;;2042391;29;1412;-87
2021/11/25 04:54:36;;;;;;;;;;;;;;;;;;2042483;29;1693;-88
2021/11/25 04:55:38;;;;;;;;;;;;;;;;;;2034829;29;1274;-88
2021/11/25 04:56:59;;;;;;;;;;;;;;;;;;2050778;28;1356;-88
2021/11/25 04:58:00;;;;;;;;;;;;;;;;;;2047978;29;1200;-89
2021/11/25 05:01:29;;;;;;;;;;;;;;;;;;2032369;29;977;-89
2021/11/25 05:02:29;;;;;;;;;;;;;;;;;;2051325;29;774;-90
2021/11/25 05:03:34;;;;;;;;;;;;;;;;;;2050759;29;1137;-89
2021/11/25 05:04:35;;;;;;;;;;;;;;;;;;2042362;29;1467;-89
2021/11/25 05:05:39;;;;;;;;;;;;;;;;;;2042198;29;1177;-92
2021/11/25 05:06:39;;;;;;;;;;;;;;;;;;2042686;29;1284;-92
2021/11/25 05:07:44;;;;;;;;;;;;;;;;;;2034789;29;1222;-92
2021/11/25 05:09:13;;;;;;;;;;;;;;;;;;2034900;29;1372;-92
2021/11/25 05:10:14;;;;;;;;;;;;;;;;;;2046108;29;1228;-91
2021/11/25 05:11:16;;;;;;;;;;;;;;;;;;2042256;29;1307;-86
2021/11/25 05:12:17;;;;;;;;;;;;;;;;;;2042291;29;1338;-86
2021/11/25 05:13:19;;;;;;;;;;;;;;;;;;2049909;29;1070;-87
2021/11/25 05:14:20;;;;;;;;;;;;;;;;;;2034279;29;1448;-87
2021/11/25 05:15:22;;;;;;;;;;;;;;;;;;2034484;29;1321;-87
2021/11/25 05:16:23;;;;;;;;;;;;;;;;;;2057026;28;1393;-88
2021/11/25 05:17:25;;;;;;;;;;;;;;;;;;2058231;28;1475;-87
2021/11/25 05:18:25;;;;;;;;;;;;;;;;;;2050242;28;1210;-87
2021/11/25 05:19:27;;;;;;;;;;;;;;;;;;2059989;28;1840;-87
2021/11/25 05:20:28;;;;;;;;;;;;;;;;;;2049957;29;1213;-87
2021/11/25 05:21:31;;;;;;;;;;;;;;;;;;2041560;29;1878;-87
2021/11/25 05:22:32;;;;;;;;;;;;;;;;;;2048040;28;1330;-87
2021/11/25 05:23:34;;;;;;;;;;;;;;;;;;2060248;28;1411;-87
2021/11/25 05:24:34;;;;;;;;;;;;;;;;;;2050720;28;1914;-87
2021/11/25 05:25:36;;;;;;;;;;;;;;;;;;2034668;29;1319;-87
2021/11/25 05:26:37;;;;;;;;;;;;;;;;;;2047219;28;1302;-86
2021/11/25 05:27:39;;;;;;;;;;;;;;;;;;2050041;28;1399;-87
2021/11/25 05:28:41;;;;;;;;;;;;;;;;;;2042045;29;1451;-84
2021/11/25 05:29:41;;;;;;;;;;;;;;;;;;2050187;28;903;-85
2021/11/25 05:30:43;;;;;;;;;;;;;;;;;;2050109;29;1223;-84
2021/11/25 05:31:44;;;;;;;;;;;;;;;;;;2049786;29;1928;-83
2021/11/25 05:32:46;;;;;;;;;;;;;;;;;;2034444;29;1484;-84
2021/11/25 05:33:47;;;;;;;;;;;;;;;;;;2042319;28;1742;-85
2021/11/25 05:34:49;;;;;;;;;;;;;;;;;;2058409;28;1354;-86
2021/11/25 05:35:51;;;;;;;;;;;;;;;;;;2050248;28;1373;-86
2021/11/25 05:36:56;;;;;;;;;;;;;;;;;;2051031;28;1259;-86
2021/11/25 05:37:57;;;;;;;;;;;;;;;;;;2057851;28;849;-88
2021/11/25 05:38:59;;;;;;;;;;;;;;;;;;2043681;29;1965;-89
2021/11/25 05:40:02;;;;;;;;;;;;;;;;;;2050447;28;895;-89
2021/11/25 05:41:04;;;;;;;;;;;;;;;;;;2058279;28;1338;-86
2021/11/25 05:42:05;;;;;;;;;;;;;;;;;;2059487;28;1344;-86
2021/11/25 05:43:07;;;;;;;;;;;;;;;;;;2043846;29;1332;-87
2021/11/25 05:44:09;;;;;;;;;;;;;;;;;;2043646;29;2030;-87
2021/11/25 05:45:11;;;;;;;;;;;;;;;;;;2043941;29;1296;-87
2021/11/25 05:46:13;;;;;;;;;;;;;;;;;;2043648;29;1763;-86
2021/11/25 05:47:13;;;;;;;;;;;;;;;;;;2043899;29;1241;-87
2021/11/25 05:48:15;;;;;;;;;;;;;;;;;;2044120;29;1387;-86
2021/11/25 05:49:16;;;;;;;;;;;;;;;;;;2038947;29;1422;-86
2021/11/25 05:50:19;;;;;;;;;;;;;;;;;;2043436;29;1207;-83
2021/11/25 05:51:21;;;;;;;;;;;;;;;;;;2043772;29;1527;-85
2021/11/25 05:52:23;;;;;;;;;;;;;;;;;;2043466;29;1562;-85
2021/11/25 05:53:25;;;;;;;;;;;;;;;;;;2043241;29;1358;-85
2021/11/25 05:54:25;;;;;;;;;;;;;;;;;;2035008;29;1773;-86
2021/11/25 05:55:30;;;;;;;;;;;;;;;;;;2042785;29;1488;-86
2021/11/25 05:56:30;;;;;;;;;;;;;;;;;;2048453;28;1702;-87
2021/11/25 05:57:32;;;;;;;;;;;;;;;;;;2045387;29;1397;-86
2021/11/25 05:58:35;;;;;;;;;;;;;;;;;;2048867;29;1539;-85
2021/11/25 05:59:35;;;;;;;;;;;;;;;;;;2043104;29;1423;-86
2021/11/25 06:00:37;;;;;;;;;;;;;;;;;;2052146;29;1390;-86
2021/11/25 06:01:38;;;;;;;;;;;;;;;;;;2051345;29;1881;-86
2021/11/25 06:02:40;;;;;;;;;;;;;;;;;;2051339;28;1396;-86
2021/11/25 06:03:42;;;;;;;;;;;;;;;;;;2050873;29;1425;-86
2021/11/25 06:04:43;;;;;;;;;;;;;;;;;;2043687;29;1973;-86
2021/11/25 06:05:45;;;;;;;;;;;;;;;;;;2042645;29;1401;-84
2021/11/25 06:06:45;;;;;;;;;;;;;;;;;;2043787;29;1305;-84
2021/11/25 06:07:49;;;;;;;;;;;;;;;;;;2043426;29;1121;-83
2021/11/25 06:08:51;;;;;;;;;;;;;;;;;;2051562;29;1193;-84
2021/11/25 06:09:52;;;;;;;;;;;;;;;;;;2035792;29;1403;-84
2021/11/25 06:10:55;;;;;;;;;;;;;;;;;;2035309;29;1232;-84
2021/11/25 06:11:55;;;;;;;;;;;;;;;;;;2044141;29;2142;-84
2021/11/25 06:12:57;;;;;;;;;;;;;;;;;;2035647;29;1274;-83
2021/11/25 06:13:58;;;;;;;;;;;;;;;;;;2045789;28;1514;-84
2021/11/25 06:15:00;;;;;;;;;;;;;;;;;;2051272;29;1469;-85
2021/11/25 06:16:02;;;;;;;;;;;;;;;;;;2035150;29;2001;-83
2021/11/25 06:17:03;;;;;;;;;;;;;;;;;;2051196;28;1599;-85
2021/11/25 06:18:04;;;;;;;;;;;;;;;;;;2035750;29;1217;-84
2021/11/25 06:19:05;;;;;;;;;;;;;;;;;;2035258;29;2162;-83
2021/11/25 06:20:11;;;;;;;;;;;;;;;;;;2043446;29;1432;-83
2021/11/25 06:21:12;;;;;;;;;;;;;;;;;;2036153;29;1998;-83
2021/11/25 06:22:14;;;;;;;;;;;;;;;;;;2035747;29;1360;-83
2021/11/25 06:23:18;;;;;;;;;;;;;;;;;;2035622;29;1567;-84
2021/11/25 06:24:18;;;;;;;;;;;;;;;;;;2039919;29;2086;-84
2021/11/25 06:25:21;;;;;;;;;;;;;;;;;;2047140;29;1457;-84
2021/11/25 06:26:23;;;;;;;;;;;;;;;;;;2048327;29;2067;-85
2021/11/25 06:27:24;;;;;;;;;;;;;;;;;;2044824;29;1416;-84
2021/11/25 06:28:27;;;;;;;;;;;;;;;;;;2051589;28;1143;-85
2021/11/25 06:29:28;;;;;;;;;;;;;;;;;;2051414;29;1230;-83
2021/11/25 06:30:29;;;;;;;;;;;;;;;;;;2043676;29;1463;-84
2021/11/25 06:31:32;;;;;;;;;;;;;;;;;;2045445;29;1243;-83
2021/11/25 06:32:33;;;;;;;;;;;;;;;;;;2043758;29;1194;-83
2021/11/25 06:33:35;;;;;;;;;;;;;;;;;;2043152;29;1275;-83
2021/11/25 06:34:36;;;;;;;;;;;;;;;;;;2059366;28;1321;-84
2021/11/25 06:35:38;;;;;;;;;;;;;;;;;;2050806;29;1530;-83
2021/11/25 06:36:39;;;;;;;;;;;;;;;;;;2035353;29;2119;-85
2021/11/25 06:37:44;;;;;;;;;;;;;;;;;;2042836;29;1361;-82
2021/11/25 06:38:47;;;;;;;;;;;;;;;;;;2043462;29;2029;-83
2021/11/25 06:39:48;;;;;;;;;;;;;;;;;;2043321;29;909;-86
2021/11/25 06:40:50;;;;;;;;;;;;;;;;;;2051048;29;1119;-83
2021/11/25 06:41:52;;;;;;;;;;;;;;;;;;2044300;29;1370;-84
2021/11/25 06:42:52;;;;;;;;;;;;;;;;;;2043072;29;1404;-84
2021/11/25 06:43:54;;;;;;;;;;;;;;;;;;2035196;29;1378;-85
2021/11/25 06:44:55;;;;;;;;;;;;;;;;;;2035477;29;1985;-85
2021/11/25 06:45:57;;;;;;;;;;;;;;;;;;2043177;29;1346;-85
2021/11/25 06:46:58;;;;;;;;;;;;;;;;;;2035171;29;2017;-86
2021/11/25 06:48:00;;;;;;;;;;;;;;;;;;2035434;29;1414;-85
2021/11/25 06:49:04;;;;;;;;;;;;;;;;;;2045265;29;1373;-85
2021/11/25 06:50:06;;;;;;;;;;;;;;;;;;2032830;29;1413;-85
2021/11/25 06:51:08;;;;;;;;;;;;;;;;;;2035172;29;1927;-85
2021/11/25 06:52:09;;;;;;;;;;;;;;;;;;2043104;29;1444;-85
2021/11/25 06:53:11;;;;;;;;;;;;;;;;;;2035028;29;1572;-85
2021/11/25 06:54:14;;;;;;;;;;;;;;;;;;2034522;29;2039;-84
2021/11/25 06:55:16;;;;;;;;;;;;;;;;;;2049734;29;1465;-85
2021/11/25 06:56:19;;;;;;;;;;;;;;;;;;2044574;28;1410;-84
2021/11/25 06:57:20;;;;;;;;;;;;;;;;;;2059213;28;1301;-84
2021/11/25 06:58:22;;;;;;;;;;;;;;;;;;2053522;28;1416;-84
2021/11/25 06:59:24;;;;;;;;;;;;;;;;;;2037716;28;2345;-84
2021/11/25 07:00:27;;;;;;;;;;;;;;;;;;2035580;29;1392;-84
2021/11/25 07:01:27;;;;;;;;;;;;;;;;;;2039048;29;1898;-84
2021/11/25 07:02:29;;;;;;;;;;;;;;;;;;2043454;29;1333;-84
2021/11/25 07:03:32;;;;;;;;;;;;;;;;;;2035511;29;1195;-83
2021/11/25 07:04:33;;;;;;;;;;;;;;;;;;2049761;28;2062;-87
2021/11/25 07:05:34;;;;;;;;;;;;;;;;;;2050710;29;1317;-84
2021/11/25 07:06:36;;;;;;;;;;;;;;;;;;2035355;29;1300;-84
2021/11/25 07:07:37;;;;;;;;;;;;;;;;;;2035581;29;1221;-85
2021/11/25 07:08:39;;;;;;;;;;;;;;;;;;2042719;29;1326;-86
2021/11/25 07:09:41;;;;;;;;;;;;;;;;;;2042826;29;1187;-84
2021/11/25 07:10:42;;;;;;;;;;;;;;;;;;2043380;29;1442;-84
2021/11/25 07:11:43;;;;;;;;;;;;;;;;;;2035533;29;1303;-84
2021/11/25 07:12:46;;;;;;;;;;;;;;;;;;2051347;29;1320;-84
2021/11/25 07:13:47;;;;;;;;;;;;;;;;;;2058234;28;2016;-84
2021/11/25 07:14:48;;;;;;;;;;;;;;;;;;2042950;29;1353;-83
2021/11/25 07:15:50;;;;;;;;;;;;;;;;;;2050012;28;1264;-84
2021/11/25 07:16:52;;;;;;;;;;;;;;;;;;2049808;28;1413;-84
2021/11/25 07:17:53;;;;;;;;;;;;;;;;;;2035348;29;1528;-84
2021/11/25 07:18:55;;;;;;;;;;;;;;;;;;2050972;29;1329;-83
2021/11/25 07:19:56;;;;;;;;;;;;;;;;;;2051080;28;1205;-84
2021/11/25 07:20:58;;;;;;;;;;;;;;;;;;2058897;28;1012;-85
2021/11/25 07:21:59;;;;;;;;;;;;;;;;;;2042533;28;1876;-84
2021/11/25 07:23:02;;;;;;;;;;;;;;;;;;2043045;29;1362;-84
2021/11/25 07:24:02;;;;;;;;;;;;;;;;;;2043036;29;2129;-84
2021/11/25 07:25:08;;;;;;;;;;;;;;;;;;2058584;28;1914;-85
2021/11/25 07:26:08;;;;;;;;;;;;;;;;;;2057860;28;2046;-84
2021/11/25 07:27:10;;;;;;;;;;;;;;;;;;2043046;29;1242;-84
2021/11/25 07:28:12;;;;;;;;;;;;;;;;;;2034531;29;1203;-85
2021/11/25 07:29:15;;;;;;;;;;;;;;;;;;2042543;29;1210;-83
2021/11/25 07:30:18;;;;;;;;;;;;;;;;;;2043594;29;797;-84
2021/11/25 07:31:20;;;;;;;;;;;;;;;;;;2042720;29;1232;-84
2021/11/25 07:32:20;;;;;;;;;;;;;;;;;;2042980;29;1489;-84
2021/11/25 07:33:22;;;;;;;;;;;;;;;;;;2035253;29;1305;-84
2021/11/25 07:34:23;;;;;;;;;;;;;;;;;;2047913;28;2010;-84
2021/11/25 07:35:25;;;;;;;;;;;;;;;;;;2042883;29;1202;-83
2021/11/25 07:36:27;;;;;;;;;;;;;;;;;;2034842;29;1255;-83
2021/11/25 07:37:28;;;;;;;;;;;;;;;;;;2042518;29;1185;-84
2021/11/25 07:38:30;;;;;;;;;;;;;;;;;;2042586;29;1215;-84
2021/11/25 07:39:32;;;;;;;;;;;;;;;;;;2042500;29;2153;-84
2021/11/25 07:40:35;;;;;;;;;;;;;;;;;;2058980;28;1284;-88
2021/11/25 07:41:38;;;;;;;;;;;;;;;;;;2063267;28;2022;-85
2021/11/25 07:42:40;;;;;;;;;;;;;;;;;;2058973;28;1312;-85
2021/11/25 07:43:41;;;;;;;;;;;;;;;;;;2042784;29;1282;-85
2021/11/25 07:44:43;;;;;;;;;;;;;;;;;;2035229;29;1982;-84
2021/11/25 07:45:45;;;;;;;;;;;;;;;;;;2042990;29;1257;-84
2021/11/25 07:46:45;;;;;;;;;;;;;;;;;;2042950;29;1996;-85
2021/11/25 07:47:47;;;;;;;;;;;;;;;;;;2042931;29;1494;-85
2021/11/25 07:48:49;;;;;;;;;;;;;;;;;;2035236;29;1282;-85
2021/11/25 07:49:50;;;;;;;;;;;;;;;;;;2042567;29;1543;-86
2021/11/25 07:50:52;;;;;;;;;;;;;;;;;;2027528;29;1359;-85
2021/11/25 07:51:52;;;;;;;;;;;;;;;;;;2027362;29;1341;-85
2021/11/25 07:52:55;;;;;;;;;;;;;;;;;;2043057;29;1432;-85
2021/11/25 07:53:57;;;;;;;;;;;;;;;;;;2043408;28;1196;-85
2021/11/25 07:54:58;;;;;;;;;;;;;;;;;;2050565;29;1257;-87
2021/11/25 07:56:02;;;;;;;;;;;;;;;;;;2042959;29;1307;-85
2021/11/25 07:57:03;;;;;;;;;;;;;;;;;;2035122;29;1537;-85
2021/11/25 07:58:05;;;;;;;;;;;;;;;;;;2043085;29;833;-86
2021/11/25 07:59:06;;;;;;;;;;;;;;;;;;2050768;29;1449;-85
2021/11/25 08:00:09;;;;;;;;;;;;;;;;;;2042562;29;1222;-85
2021/11/25 08:01:12;;;;;;;;;;;;;;;;;;2059387;28;772;-86
2021/11/25 08:02:16;;;;;;;;;;;;;;;;;;2058470;28;1307;-86
2021/11/25 08:03:18;;;;;;;;;;;;;;;;;;2050300;28;1065;-86
2021/11/25 08:04:19;;;;;;;;;;;;;;;;;;2044831;28;2021;-85
2021/11/25 08:05:24;;;;;;;;;;;;;;;;;;2041399;29;1977;-85
2021/11/25 08:06:26;;;;;;;;;;;;;;;;;;2041196;29;2147;-86
2021/11/25 08:07:28;;;;;;;;;;;;;;;;;;2041052;29;1460;-86
2021/11/25 08:08:28;;;;;;;;;;;;;;;;;;2041943;29;1287;-84
2021/11/25 08:09:30;;;;;;;;;;;;;;;;;;2034376;29;2118;-84
2021/11/25 08:10:32;;;;;;;;;;;;;;;;;;2042017;29;1426;-85
2021/11/25 08:11:34;;;;;;;;;;;;;;;;;;2045833;29;1952;-85
2021/11/25 08:12:36;;;;;;;;;;;;;;;;;;2050117;29;1100;-87
2021/11/25 08:13:38;;;;;;;;;;;;;;;;;;2041718;29;1194;-86
2021/11/25 08:14:39;;;;;;;;;;;;;;;;;;2041981;29;1229;-85
2021/11/25 08:15:41;;;;;;;;;;;;;;;;;;2049383;29;1273;-85
2021/11/25 08:16:42;;;;;;;;;;;;;;;;;;2041929;29;1460;-85